Time;durP1;ratioP1;P1;durP2;ratioP2;P2;SDS_P1;SDS_P2;PMS_P1;PMS_P2;Temp;Humidity;BMP_temperature;BMP_pressure;BME280_temperature;BME280_humidity;BME280_pressure;Samples;Min_cycle;Max_cycle;Signal;HPM_P1;HPM_P2
2022/03/18 00:00:45;;;;;;;15.00;5.60;;;;;;;-3.89;50.72;102010.46;109039;1277;138950;-60
2022/03/18 00:03:13;;;;;;;10.70;5.40;;;;;;;-3.90;50.87;102006.98;109130;1277;23842;-60
2022/03/18 00:05:43;;;;;;;10.00;5.90;;;;;;;-3.91;50.86;102010.05;109139;1276;22478;-60
2022/03/18 00:08:11;;;;;;;9.10;5.20;;;;;;;-3.91;50.86;102010.02;109011;1277;138965;-60
2022/03/18 00:10:39;;;;;;;11.30;5.60;;;;;;;-3.90;50.87;102009.60;109157;1276;23597;-60
2022/03/18 00:13:07;;;;;;;6.70;4.20;;;;;;;-3.90;51.02;102013.56;109101;1276;138784;-60
2022/03/18 00:15:56;;;;;;;8.90;5.60;;;;;;;-3.91;51.15;102014.84;109096;1277;22700;-60
2022/03/18 00:18:26;;;;;;;11.80;6.10;;;;;;;-3.91;51.34;102014.84;109019;1277;138677;-60
2022/03/18 00:20:54;;;;;;;11.00;6.00;;;;;;;-3.94;51.39;102014.27;109144;1276;22561;-61
2022/03/18 00:23:23;;;;;;;9.20;5.10;;;;;;;-3.97;51.47;102017.33;109165;1277;23506;-60
2022/03/18 00:25:51;;;;;;;12.00;6.60;;;;;;;-3.99;51.49;102019.59;109017;1277;139661;-60
2022/03/18 00:28:19;;;;;;;12.10;5.80;;;;;;;-4.00;51.47;102018.39;109079;1277;22440;-61
2022/03/18 00:30:48;;;;;;;14.50;6.30;;;;;;;-4.00;51.86;102018.95;109073;1277;137855;-61
2022/03/18 00:33:16;;;;;;;12.20;7.20;;;;;;;-4.03;51.82;102016.69;109085;1277;22463;-61
2022/03/18 00:35:45;;;;;;;13.40;6.60;;;;;;;-4.06;51.88;102021.70;109183;1277;22512;-62
2022/03/18 00:38:13;;;;;;;12.40;6.00;;;;;;;-4.10;52.09;102020.70;109042;1277;137896;-60
2022/03/18 00:40:44;;;;;;;12.00;6.40;;;;;;;-4.13;52.02;102023.95;109134;1276;22444;-59
2022/03/18 00:43:13;;;;;;;14.30;6.50;;;;;;;-4.17;52.16;102021.73;109090;1276;139893;-59
2022/03/18 00:45:47;;;;;;;13.40;7.00;;;;;;;-4.20;52.10;102024.98;109250;1276;22415;-61
2022/03/18 00:53:51;;;;;;;13.70;6.80;;;;;;;-4.28;52.24;102031.30;109239;1275;23312;-58
2022/03/18 00:56:19;;;;;;;13.00;7.00;;;;;;;-4.30;52.36;102030.00;109125;1275;137697;-58
2022/03/18 00:58:47;;;;;;;15.10;6.70;;;;;;;-4.32;52.49;102034.45;109116;1277;22474;-59
2022/03/18 01:01:15;;;;;;;11.80;6.10;;;;;;;-4.36;52.47;102036.98;109252;1275;137712;-58
2022/03/18 01:03:44;;;;;;;14.70;6.80;;;;;;;-4.39;52.55;102034.02;109311;1275;23208;-61
2022/03/18 01:06:12;;;;;;;9.60;5.90;;;;;;;-4.41;52.61;102035.20;109332;1276;23390;-60
2022/03/18 01:08:40;;;;;;;14.10;7.10;;;;;;;-4.44;52.78;102034.84;109194;1276;138956;-60
2022/03/18 01:11:08;;;;;;;13.90;6.60;;;;;;;-4.47;52.82;102037.20;109376;1275;22445;-59
2022/03/18 01:13:36;;;;;;;15.80;6.40;;;;;;;-4.49;53.05;102039.80;109128;1276;139479;-59
2022/03/18 01:16:04;;;;;;;14.50;7.10;;;;;;;-4.51;53.02;102043.30;109323;1275;22434;-59
2022/03/18 01:18:33;;;;;;;12.10;5.80;;;;;;;-4.52;52.92;102043.58;109140;1275;138689;-59
2022/03/18 01:21:03;;;;;;;11.40;6.70;;;;;;;-4.55;53.18;102043.94;109269;1275;22498;-59
2022/03/18 01:23:31;;;;;;;11.60;6.50;;;;;;;-4.58;53.09;102047.45;109358;1275;22438;-59
2022/03/18 01:26:00;;;;;;;14.10;6.40;;;;;;;-4.58;53.16;102047.16;109228;1275;138728;-59
2022/03/18 01:28:29;;;;;;;14.50;6.60;;;;;;;-4.59;53.37;102051.96;109332;1276;22413;-59
2022/03/18 01:30:58;;;;;;;10.70;5.60;;;;;;;-4.60;53.38;102050.44;109220;1275;138734;-59
2022/03/18 01:33:26;;;;;;;12.40;6.90;;;;;;;-4.61;53.43;102052.82;109237;1276;22436;-59
2022/03/18 01:35:54;;;;;;;12.10;6.60;;;;;;;-4.61;53.53;102051.95;109325;1275;22417;-59
2022/03/18 01:38:22;;;;;;;12.20;6.50;;;;;;;-4.62;53.61;102053.62;109135;1276;138531;-59
2022/03/18 01:40:51;;;;;;;14.00;7.10;;;;;;;-4.62;53.68;102058.04;109326;1275;22454;-59
2022/03/18 01:43:19;;;;;;;13.10;6.70;;;;;;;-4.62;53.72;102054.66;109119;1276;139476;-59
2022/03/18 01:45:50;;;;;;;9.50;5.30;;;;;;;-4.61;53.81;102055.31;109151;1277;22414;-59
2022/03/18 01:48:18;;;;;;;12.40;5.90;;;;;;;-4.59;54.11;102057.34;109129;1277;23302;-59
2022/03/18 01:50:48;;;;;;;9.80;5.80;;;;;;;-4.59;54.04;102061.23;109229;1275;137821;-59
2022/03/18 01:53:16;;;;;;;11.80;6.30;;;;;;;-4.61;54.23;102063.83;109345;1276;22290;-59
2022/03/18 01:55:44;;;;;;;11.10;6.10;;;;;;;-4.63;54.21;102066.09;109133;1276;139812;-60
2022/03/18 01:58:13;;;;;;;12.20;7.20;;;;;;;-4.67;54.19;102064.00;109186;1276;22470;-59
2022/03/18 02:00:41;;;;;;;10.80;5.90;;;;;;;-4.67;54.32;102065.95;109037;1277;138328;-58
2022/03/18 02:03:10;;;;;;;8.40;5.70;;;;;;;-4.69;54.41;102064.82;109126;1276;22423;-59
2022/03/18 02:05:40;;;;;;;16.00;5.80;;;;;;;-4.72;54.48;102063.96;109152;1277;23274;-58
2022/03/18 02:08:08;;;;;;;8.80;5.30;;;;;;;-4.72;54.32;102070.72;109031;1277;138028;-59
2022/03/18 02:10:58;;;;;;;12.90;6.30;;;;;;;-4.73;54.56;102073.80;109128;1277;22434;-58
2022/03/18 02:13:49;;;;;;;11.50;6.40;;;;;;;-4.76;54.52;102072.04;109115;1276;137985;-60
2022/03/18 02:16:25;;;;;;;12.60;5.50;;;;;;;-4.79;54.48;102073.29;109305;1275;22348;-59
2022/03/18 02:18:54;;;;;;;13.60;6.60;;;;;;;-4.82;54.55;102074.54;109032;1275;213398;-59
2022/03/18 02:22:47;;;;;;;13.10;6.10;;;;;;;-4.84;54.57;102072.37;101893;1309;546154;-59
2022/03/18 02:25:17;;;;;;;9.30;5.60;;;;;;;-4.86;54.42;102075.48;108127;1286;137432;-60
2022/03/18 02:28:02;;;;;;;12.60;5.90;;;;;;;-4.84;54.52;102078.77;108004;1288;22493;-60
2022/03/18 02:30:34;;;;;;;15.20;6.20;;;;;;;-4.83;54.64;102078.33;107850;1289;138372;-60
2022/03/18 02:33:02;;;;;;;14.60;7.70;;;;;;;-4.82;54.61;102077.23;107863;1289;23592;-60
2022/03/18 02:35:32;;;;;;;13.70;6.00;;;;;;;-4.82;54.59;102085.38;107865;1287;147759;-60
2022/03/18 02:38:01;;;;;;;9.00;4.70;;;;;;;-4.82;54.56;102085.20;108041;1287;138091;-59
2022/03/18 02:40:29;;;;;;;8.70;5.30;;;;;;;-4.82;54.61;102090.34;108085;1287;22501;-60
2022/03/18 02:42:58;;;;;;;13.30;5.30;;;;;;;-4.83;54.63;102089.53;108006;1287;138270;-60
2022/03/18 02:45:26;;;;;;;10.10;4.60;;;;;;;-4.83;54.63;102091.79;107635;1287;22566;-59
2022/03/18 02:47:55;;;;;;;10.40;4.90;;;;;;;-4.83;54.65;102095.16;108041;1286;23233;-59
2022/03/18 02:50:23;;;;;;;9.60;5.50;;;;;;;-4.82;54.48;102097.09;107962;1287;137267;-60
2022/03/18 02:52:52;;;;;;;10.70;4.70;;;;;;;-4.81;54.70;102100.39;108170;1287;22450;-60
2022/03/18 02:55:21;;;;;;;10.10;4.40;;;;;;;-4.82;54.61;102101.13;108014;1286;137485;-60
2022/03/18 02:57:49;;;;;;;9.00;4.60;;;;;;;-4.84;54.68;102105.49;108183;1287;23431;-60
2022/03/18 03:00:17;;;;;;;8.20;4.30;;;;;;;-4.86;54.78;102103.88;108399;1284;22513;-59
2022/03/18 03:02:46;;;;;;;9.90;5.60;;;;;;;-4.89;54.82;102107.98;108320;1284;138009;-60
2022/03/18 03:08:02;;;;;;;10.50;4.90;;;;;;;-4.93;54.92;102121.17;108355;1284;138897;-59
2022/03/18 03:10:32;;;;;;;9.10;5.10;;;;;;;-4.94;54.95;102118.94;108441;1283;23245;-59
2022/03/18 03:13:03;;;;;;;10.70;5.10;;;;;;;-4.96;55.01;102121.89;108341;1284;138256;-59
2022/03/18 03:15:33;;;;;;;7.50;4.50;;;;;;;-5.00;55.11;102121.92;108480;1282;22517;-60
2022/03/18 03:18:01;;;;;;;9.00;5.00;;;;;;;-5.01;55.25;102119.16;108481;1283;23233;-60
2022/03/18 03:20:29;;;;;;;10.70;4.90;;;;;;;-5.03;55.27;102123.55;108380;1283;139003;-59
2022/03/18 03:22:57;;;;;;;10.90;4.60;;;;;;;-5.05;55.37;102121.02;108418;1284;22429;-60
2022/03/18 03:25:25;;;;;;;9.80;5.20;;;;;;;-5.06;55.30;102122.83;108295;1283;138101;-60
2022/03/18 03:27:54;;;;;;;9.60;4.90;;;;;;;-5.07;55.46;102123.83;108485;1284;23392;-60
2022/03/18 03:30:22;;;;;;;9.50;4.80;;;;;;;-5.09;55.60;102127.64;108499;1284;22548;-60
2022/03/18 03:32:57;;;;;;;8.50;5.10;;;;;;;-5.11;55.83;102127.05;108377;1284;136932;-60
2022/03/18 03:35:26;;;;;;;11.00;5.50;;;;;;;-5.13;55.85;102127.70;108636;1281;23012;-59
2022/03/18 03:37:54;;;;;;;7.90;5.10;;;;;;;-5.16;55.95;102130.20;108558;1282;138271;-59
2022/03/18 03:40:24;;;;;;;15.30;5.90;;;;;;;-5.18;56.01;102130.68;108651;1281;22516;-60
2022/03/18 03:42:53;;;;;;;12.10;6.40;;;;;;;-5.20;56.36;102136.13;108555;1282;137606;-60
2022/03/18 03:45:22;;;;;;;10.00;5.30;;;;;;;-5.23;56.41;102135.75;108665;1280;22582;-60
2022/03/18 03:47:50;;;;;;;12.00;5.80;;;;;;;-5.25;56.50;102140.84;108746;1281;22460;-59
2022/03/18 03:50:18;;;;;;;16.30;6.20;;;;;;;-5.27;56.66;102142.03;108556;1281;137847;-60
2022/03/18 03:52:48;;;;;;;10.10;5.40;;;;;;;-5.29;56.69;102145.34;108664;1281;23398;-60
2022/03/18 03:55:16;;;;;;;11.60;6.30;;;;;;;-5.33;57.06;102149.30;108548;1281;138590;-59
2022/03/18 03:57:44;;;;;;;13.70;6.20;;;;;;;-5.35;57.07;102154.36;108697;1281;22701;-59
2022/03/18 04:00:13;;;;;;;9.10;5.30;;;;;;;-5.38;57.27;102155.95;108632;1281;22583;-59
2022/03/18 04:02:43;;;;;;;11.30;6.00;;;;;;;-5.40;57.46;102157.51;108556;1281;137693;-60
2022/03/18 04:05:12;;;;;;;11.60;5.60;;;;;;;-5.44;57.62;102158.96;108621;1281;22563;-60
2022/03/18 04:07:41;;;;;;;9.80;6.10;;;;;;;-5.47;57.83;102163.92;108588;1281;138677;-59
2022/03/18 04:10:09;;;;;;;13.00;6.60;;;;;;;-5.51;57.91;102167.54;108659;1281;22462;-60
2022/03/18 04:12:39;;;;;;;13.30;6.10;;;;;;;-5.54;58.11;102168.64;108561;1281;137519;-60
2022/03/18 04:15:11;;;;;;;16.60;7.30;;;;;;;-5.57;58.20;102171.94;108620;1280;22491;-59
2022/03/18 04:17:40;;;;;;;14.50;6.90;;;;;;;-5.59;58.38;102172.94;108729;1280;22413;-59
2022/03/18 04:20:09;;;;;;;14.90;5.90;;;;;;;-5.60;58.51;102179.57;108529;1280;137507;-60
2022/03/18 04:22:38;;;;;;;13.40;6.00;;;;;;;-5.62;58.78;102184.84;108735;1281;22473;-60
2022/03/18 04:25:08;;;;;;;14.90;6.80;;;;;;;-5.63;58.78;102187.02;108517;1281;137548;-60
2022/03/18 04:27:37;;;;;;;13.80;6.30;;;;;;;-5.63;58.87;102187.74;108673;1281;22451;-58
2022/03/18 04:30:07;;;;;;;12.10;6.00;;;;;;;-5.63;58.97;102182.80;108629;1281;22450;-59
2022/03/18 04:32:36;;;;;;;9.70;5.00;;;;;;;-5.63;59.01;102184.52;108569;1281;137901;-59
2022/03/18 04:35:05;;;;;;;17.00;7.00;;;;;;;-5.61;59.10;102186.18;108659;1281;22433;-59
2022/03/18 04:37:34;;;;;;;12.10;5.80;;;;;;;-5.60;59.10;102185.23;108545;1281;137501;-59
2022/03/18 04:40:04;;;;;;;11.50;6.10;;;;;;;-5.58;59.14;102189.90;108676;1281;22433;-59
2022/03/18 04:42:32;;;;;;;9.30;5.10;;;;;;;-5.56;59.23;102191.20;108655;1281;22420;-59
2022/03/18 04:45:01;;;;;;;9.90;5.90;;;;;;;-5.55;59.29;102193.62;108524;1280;137913;-59
2022/03/18 04:47:30;;;;;;;10.10;5.50;;;;;;;-5.53;59.27;102197.08;108617;1282;22519;-60
2022/03/18 04:50:00;;;;;;;9.70;5.40;;;;;;;-5.50;59.55;102204.34;108500;1282;138421;-59
2022/03/18 04:52:28;;;;;;;10.10;6.10;;;;;;;-5.44;59.44;102209.27;108622;1281;23092;-59
2022/03/18 04:54:57;;;;;;;12.60;7.10;;;;;;;-5.37;59.35;102209.00;108564;1281;139189;-59
2022/03/18 04:57:25;;;;;;;11.30;6.70;;;;;;;-5.27;59.36;102215.37;108740;1281;22404;-59
2022/03/18 04:59:54;;;;;;;10.90;5.90;;;;;;;-5.17;59.17;102214.77;108599;1281;22526;-60
2022/03/18 05:02:24;;;;;;;10.80;5.90;;;;;;;-5.08;59.01;102221.29;108547;1281;137334;-61
2022/03/18 05:04:53;;;;;;;9.60;5.70;;;;;;;-4.98;58.48;102218.77;108666;1281;22429;-60
2022/03/18 05:07:21;;;;;;;10.00;5.20;;;;;;;-4.92;58.24;102217.71;108558;1281;138215;-60
2022/03/18 05:09:49;;;;;;;10.00;5.80;;;;;;;-4.91;58.09;102218.14;108654;1281;22730;-61
2022/03/18 05:12:18;;;;;;;9.90;5.90;;;;;;;-4.89;58.20;102219.42;108663;1281;22457;-60
2022/03/18 05:15:11;;;;;;;12.60;5.90;;;;;;;-4.83;58.28;102219.45;108626;1280;138571;-61
2022/03/18 05:17:40;;;;;;;12.30;5.80;;;;;;;-4.77;58.06;102221.41;108793;1280;22381;-60
2022/03/18 05:20:10;;;;;;;12.80;6.30;;;;;;;-4.73;57.77;102217.23;108517;1281;138636;-61
2022/03/18 05:22:39;;;;;;;10.30;5.80;;;;;;;-4.73;57.47;102217.22;108866;1280;22466;-61
2022/03/18 05:25:08;;;;;;;14.70;7.40;;;;;;;-4.74;57.47;102219.06;108798;1279;138320;-60
2022/03/18 05:27:41;;;;;;;11.30;6.20;;;;;;;-4.74;57.63;102221.73;108820;1280;23694;-60
2022/03/18 05:30:15;;;;;;;10.00;5.40;;;;;;;-4.73;57.64;102229.09;108956;1280;22640;-60
2022/03/18 05:32:44;;;;;;;8.80;5.30;;;;;;;-4.68;57.76;102227.75;108835;1280;138146;-61
2022/03/18 05:35:13;;;;;;;14.70;6.90;;;;;;;-4.63;57.51;102226.71;108942;1280;22529;-60
2022/03/18 05:37:41;;;;;;;15.80;7.10;;;;;;;-4.58;57.40;102227.34;108855;1280;137780;-60
2022/03/18 05:40:10;;;;;;;12.10;6.70;;;;;;;-4.54;57.26;102232.59;108896;1280;22557;-60
2022/03/18 05:42:40;;;;;;;10.70;5.80;;;;;;;-4.48;57.09;102232.35;108946;1280;23205;-61
2022/03/18 05:45:09;;;;;;;9.90;5.70;;;;;;;-4.43;56.77;102237.71;108834;1280;137798;-60
2022/03/18 05:47:37;;;;;;;12.70;6.00;;;;;;;-4.39;56.66;102241.74;108915;1281;23524;-60
2022/03/18 05:50:06;;;;;;;11.70;5.60;;;;;;;-4.34;56.87;102245.68;108890;1280;139657;-60
2022/03/18 05:52:40;;;;;;;10.30;5.80;;;;;;;-4.27;56.35;102240.27;108887;1280;22446;-60
2022/03/18 05:55:11;;;;;;;9.00;5.60;;;;;;;-4.21;56.24;102243.83;108875;1280;137675;-59
2022/03/18 05:57:39;;;;;;;10.80;5.20;;;;;;;-4.17;56.28;102246.35;109018;1279;22439;-60
2022/03/18 06:00:08;;;;;;;11.40;5.70;;;;;;;-4.12;55.82;102252.63;109001;1280;22445;-60
2022/03/18 06:02:42;;;;;;;10.40;6.10;;;;;;;-4.09;55.97;102255.84;108912;1280;139336;-59
2022/03/18 06:05:11;;;;;;;11.40;6.00;;;;;;;-4.04;56.19;102261.51;108693;1280;22499;-59
2022/03/18 06:07:42;;;;;;;11.70;6.50;;;;;;;-3.96;55.87;102265.11;108844;1278;138398;-60
2022/03/18 06:13:16;;;;;;;9.90;5.90;;;;;;;-3.82;55.50;102268.16;108828;1279;137550;-60
2022/03/18 06:15:45;;;;;;;12.20;6.30;;;;;;;-3.76;55.27;102270.55;108993;1279;22435;-60
2022/03/18 06:18:18;;;;;;;12.80;6.20;;;;;;;-3.69;55.12;102269.04;108987;1279;22444;-59
2022/03/18 06:20:50;;;;;;;11.10;6.40;;;;;;;-3.67;54.86;102273.17;108880;1278;137494;-60
2022/03/18 06:23:18;;;;;;;11.90;6.20;;;;;;;-3.62;54.96;102278.69;108855;1280;22462;-59
2022/03/18 06:25:46;;;;;;;12.50;6.20;;;;;;;-3.56;54.72;102278.33;109223;1275;137068;-59
2022/03/18 06:28:16;;;;;;;10.90;5.20;;;;;;;-3.52;54.56;102277.56;109381;1275;22805;-59
2022/03/18 06:30:44;;;;;;;15.30;6.10;;;;;;;-3.51;54.43;102277.28;109374;1274;22604;-59
2022/03/18 06:33:13;;;;;;;10.10;5.70;;;;;;;-3.50;54.39;102276.70;109209;1276;138595;-59
2022/03/18 06:35:41;;;;;;;11.00;5.80;;;;;;;-3.47;54.37;102276.48;109387;1274;23185;-59
2022/03/18 06:38:09;;;;;;;9.00;5.60;;;;;;;-3.43;54.52;102275.14;109234;1276;138604;-59
2022/03/18 06:40:38;;;;;;;10.70;6.00;;;;;;;-3.37;54.54;102277.83;109250;1276;23453;-59
2022/03/18 06:43:06;;;;;;;10.00;5.00;;;;;;;-3.31;54.53;102280.35;109263;1274;139164;-59
2022/03/18 06:45:34;;;;;;;16.10;6.80;;;;;;;-3.23;54.53;102281.29;109345;1276;23809;-60
2022/03/18 06:48:02;;;;;;;16.40;7.50;;;;;;;-3.17;53.99;102286.41;109286;1274;22416;-62
2022/03/18 06:50:31;;;;;;;17.40;5.80;;;;;;;-3.17;53.86;102286.56;109162;1275;138073;-62
2022/03/18 06:53:01;;;;;;;11.10;5.70;;;;;;;-3.16;53.77;102286.17;109365;1274;22389;-60
2022/03/18 06:55:29;;;;;;;13.10;6.20;;;;;;;-3.13;53.98;102286.66;109245;1275;139585;-59
2022/03/18 06:57:57;;;;;;;14.60;6.50;;;;;;;-3.09;53.74;102280.89;109359;1274;22415;-59
2022/03/18 07:00:26;;;;;;;10.70;6.30;;;;;;;-3.07;53.42;102285.55;109307;1274;22477;-60
2022/03/18 07:02:54;;;;;;;10.30;5.20;;;;;;;-3.06;53.70;102280.19;109210;1275;138906;-60
2022/03/18 07:05:23;;;;;;;9.40;5.90;;;;;;;-3.05;53.68;102287.06;109346;1275;22479;-62
2022/03/18 07:07:51;;;;;;;13.50;5.70;;;;;;;-3.04;53.58;102289.48;109222;1274;137680;-60
2022/03/18 07:10:20;;;;;;;10.70;6.30;;;;;;;-3.05;53.50;102288.80;109334;1275;22594;-60
2022/03/18 07:12:50;;;;;;;10.20;6.00;;;;;;;-3.04;53.44;102295.16;109240;1274;139176;-60
2022/03/18 07:15:19;;;;;;;13.20;6.00;;;;;;;-3.04;53.48;102293.05;109356;1274;22553;-61
2022/03/18 07:17:58;;;;;;;9.20;5.70;;;;;;;-3.04;53.22;102297.30;109387;1274;22413;-59
2022/03/18 07:20:34;;;;;;;8.80;5.00;;;;;;;-3.04;53.23;102299.23;109270;1274;139779;-61
2022/03/18 07:23:09;;;;;;;11.00;5.20;;;;;;;-3.03;53.37;102303.45;109366;1274;22446;-61
2022/03/18 07:25:45;;;;;;;10.10;5.70;;;;;;;-3.01;53.68;102306.12;109241;1274;138001;-60
2022/03/18 07:28:18;;;;;;;12.80;6.30;;;;;;;-2.96;53.93;102302.39;109203;1274;23221;-61
2022/03/18 07:30:46;;;;;;;14.40;6.40;;;;;;;-2.92;53.55;102300.91;109350;1275;22318;-61
2022/03/18 07:33:21;;;;;;;13.50;6.80;;;;;;;-2.89;53.68;102302.30;109233;1274;138488;-62
2022/03/18 07:35:49;;;;;;;9.50;5.80;;;;;;;-2.85;53.73;102302.53;108042;1274;25224;-60
2022/03/18 07:38:18;;;;;;;13.90;6.70;;;;;;;-2.77;53.96;102304.02;109195;1276;139116;-60
2022/03/18 07:40:46;;;;;;;11.30;6.30;;;;;;;-2.67;53.99;102303.66;109352;1274;23229;-60
2022/03/18 07:43:14;;;;;;;18.00;6.20;;;;;;;-2.57;53.57;102308.63;109253;1274;137743;-61
2022/03/18 07:45:42;;;;;;;9.60;5.30;;;;;;;-2.49;53.34;102303.27;109197;1275;22411;-60
2022/03/18 07:48:12;;;;;;;12.90;6.00;;;;;;;-2.40;53.33;102304.98;109397;1274;22440;-61
2022/03/18 07:50:40;;;;;;;9.00;5.10;;;;;;;-2.34;53.02;102307.27;109190;1276;138044;-61
2022/03/18 07:53:09;;;;;;;11.10;5.90;;;;;;;-2.30;52.91;102308.04;109329;1275;23587;-61
2022/03/18 07:55:38;;;;;;;8.90;5.20;;;;;;;-2.32;52.91;102305.73;109267;1274;138234;-61
2022/03/18 07:58:07;;;;;;;10.20;4.80;;;;;;;-2.35;52.95;102304.83;109359;1274;22446;-61
2022/03/18 08:00:53;;;;;;;14.30;6.30;;;;;;;-2.34;53.13;102304.74;109354;1274;23122;-62
2022/03/18 08:03:41;;;;;;;;;;;;;;;-2.27;53.27;102304.42;109205;1274;137514;-60
2022/03/18 08:06:29;;;;;;;9.10;5.20;;;;;;;-2.20;53.11;102309.83;109391;1274;22563;-61
2022/03/18 08:08:57;;;;;;;10.60;6.20;;;;;;;-2.14;53.00;102307.05;109069;1276;139414;-60
2022/03/18 08:11:25;;;;;;;10.20;5.80;;;;;;;-2.08;52.85;102304.39;109134;1276;22455;-60
2022/03/18 08:14:09;;;;;;;9.80;5.80;;;;;;;-2.04;52.61;102309.23;109094;1276;138065;-60
2022/03/18 08:16:37;;;;;;;9.10;5.00;;;;;;;-1.99;52.23;102306.55;109138;1276;22519;-61
2022/03/18 08:19:06;;;;;;;10.70;6.00;;;;;;;-1.93;52.17;102304.17;109171;1275;22532;-60
2022/03/18 08:21:34;;;;;;;10.60;5.40;;;;;;;-1.90;52.09;102303.24;109068;1276;137705;-60
2022/03/18 08:24:04;;;;;;;11.50;5.70;;;;;;;-1.85;52.35;102307.48;109161;1276;22439;-60
2022/03/18 08:26:37;;;;;;;10.10;5.30;;;;;;;-1.80;52.08;102307.66;109004;1277;137912;-61
2022/03/18 08:29:09;;;;;;;12.40;5.50;;;;;;;-1.75;52.07;102305.74;109191;1276;23102;-61
2022/03/18 08:31:38;;;;;;;10.00;5.80;;;;;;;-1.68;51.76;102304.87;109056;1276;138604;-61
2022/03/18 08:34:08;;;;;;;9.60;6.30;;;;;;;-1.60;51.51;102306.98;109066;1276;22442;-61
2022/03/18 08:36:36;;;;;;;8.90;4.90;;;;;;;-1.52;51.31;102313.50;106576;1276;22733;-60
2022/03/18 08:39:04;;;;;;;10.70;5.30;;;;;;;-1.49;51.05;102307.92;109116;1276;138310;-61
2022/03/18 08:41:36;;;;;;;11.00;5.10;;;;;;;-1.49;50.98;102312.77;109228;1276;22455;-61
2022/03/18 08:44:04;;;;;;;16.90;6.10;;;;;;;-1.50;50.92;102309.41;109093;1276;137911;-61
2022/03/18 08:46:34;;;;;;;9.40;5.90;;;;;;;-1.50;50.94;102307.48;109148;1276;22413;-61
2022/03/18 08:49:04;;;;;;;9.50;5.30;;;;;;;-1.49;50.57;102309.73;109264;1276;22469;-60
2022/03/18 08:51:32;;;;;;;9.00;5.30;;;;;;;-1.47;50.69;102309.21;109041;1276;138541;-60
2022/03/18 08:54:02;;;;;;;11.40;5.40;;;;;;;-1.41;50.75;102307.36;109133;1276;23110;-60
2022/03/18 08:56:31;;;;;;;9.30;5.70;;;;;;;-1.33;50.46;102311.22;109057;1276;138691;-61
2022/03/18 08:59:03;;;;;;;9.00;5.00;;;;;;;-1.28;50.51;102307.46;109159;1276;22595;-61
2022/03/18 09:01:33;;;;;;;13.60;6.20;;;;;;;-1.24;50.48;102309.65;109016;1276;139918;-60
2022/03/18 09:04:02;;;;;;;11.20;5.60;;;;;;;-1.15;49.90;102307.19;109177;1276;22457;-60
2022/03/18 09:06:32;;;;;;;10.80;4.80;;;;;;;-1.07;50.06;102307.48;109130;1276;22423;-60
2022/03/18 09:09:03;;;;;;;10.90;5.90;;;;;;;-0.99;49.88;102305.27;109025;1276;139091;-60
2022/03/18 09:11:32;;;;;;;9.90;5.70;;;;;;;-0.93;49.31;102296.06;109153;1277;22358;-60
2022/03/18 09:14:02;;;;;;;11.80;6.30;;;;;;;-0.90;49.59;102289.81;108931;1277;139054;-60
2022/03/18 09:16:33;;;;;;;12.50;6.10;;;;;;;-0.82;49.70;102295.55;109314;1274;22435;-60
2022/03/18 09:19:03;;;;;;;11.30;5.30;;;;;;;-0.73;49.38;102290.80;109179;1275;23209;-60
2022/03/18 09:21:35;;;;;;;10.30;5.70;;;;;;;-0.69;49.24;102290.12;109014;1276;138797;-60
2022/03/18 09:24:05;;;;;;;7.30;4.90;;;;;;;-0.64;49.18;102296.40;109112;1276;23468;-60
2022/03/18 09:26:40;;;;;;;7.80;4.60;;;;;;;-0.59;48.90;102289.73;109061;1276;139212;-60
2022/03/18 09:29:12;;;;;;;9.10;4.90;;;;;;;-0.52;48.93;102290.10;109122;1276;23181;-62
2022/03/18 09:31:40;;;;;;;9.20;5.60;;;;;;;-0.47;48.70;102290.92;108863;1278;137594;-60
2022/03/18 09:34:12;;;;;;;8.70;5.10;;;;;;;-0.43;48.24;102281.48;109138;1277;23256;-60
2022/03/18 09:36:41;;;;;;;9.10;4.40;;;;;;;-0.40;48.12;102275.22;109165;1276;22459;-62
2022/03/18 09:39:12;;;;;;;9.00;4.70;;;;;;;-0.37;47.77;102274.79;109008;1276;137437;-60
2022/03/18 09:41:41;;;;;;;7.90;4.10;;;;;;;-0.32;47.29;102277.08;109167;1276;22455;-59
2022/03/18 09:44:10;;;;;;;8.10;4.60;;;;;;;-0.26;47.31;102278.74;109076;1276;139322;-60
2022/03/18 09:46:45;;;;;;;6.60;4.50;;;;;;;-0.20;46.19;102278.62;106219;1279;22610;-60
2022/03/18 09:49:14;;;;;;;10.40;5.90;;;;;;;-0.15;46.16;102275.73;109188;1277;22467;-60
2022/03/18 09:51:44;;;;;;;10.00;6.40;;;;;;;-0.12;45.64;102276.89;108960;1277;139129;-60
2022/03/18 09:54:29;;;;;;;6.60;3.20;;;;;;;-0.06;45.24;102281.45;109305;1276;23243;-60
2022/03/18 09:57:00;;;;;;;8.70;4.00;;;;;;;0.02;44.76;102282.95;109180;1276;137713;-60
2022/03/18 09:59:29;;;;;;;6.80;3.60;;;;;;;0.08;43.35;102290.30;109110;1277;22436;-59
2022/03/18 10:02:39;;;;;;;6.10;4.20;;;;;;;0.08;42.71;102284.59;109129;1276;139162;-60
2022/03/18 10:05:16;;;;;;;8.60;3.90;;;;;;;0.05;42.98;102287.67;108537;1282;22484;-60
2022/03/18 10:07:54;;;;;;;7.80;4.40;;;;;;;0.04;43.03;102289.42;108561;1281;139296;-60
2022/03/18 10:10:23;;;;;;;9.80;4.90;;;;;;;0.03;42.75;102288.40;108692;1281;22502;-61
2022/03/18 10:12:56;;;;;;;6.80;4.00;;;;;;;0.02;42.49;102286.33;108664;1281;23295;-61
2022/03/18 10:15:28;;;;;;;7.00;4.20;;;;;;;0.01;42.52;102285.70;108617;1281;139626;-59
2022/03/18 10:17:58;;;;;;;7.30;3.70;;;;;;;0.05;42.19;102280.07;108740;1281;22483;-59
2022/03/18 10:20:45;;;;;;;7.90;3.90;;;;;;;0.08;42.35;102282.30;108610;1281;138415;-61
2022/03/18 10:23:16;;;;;;;7.00;4.00;;;;;;;0.13;42.26;102284.77;108702;1281;22372;-60
2022/03/18 10:25:50;;;;;;;7.10;4.50;;;;;;;0.13;42.28;102281.71;108615;1281;140180;-61
2022/03/18 10:28:37;;;;;;;13.10;5.00;;;;;;;0.13;42.69;102280.11;108755;1281;22465;-60
2022/03/18 10:31:20;;;;;;;7.70;4.40;;;;;;;0.13;42.33;102277.80;108703;1281;22492;-60
2022/03/18 10:39:34;;;;;;;15.10;5.60;;;;;;;0.14;42.82;102272.72;109091;1276;137178;-60
2022/03/18 10:42:14;;;;;;;16.00;7.20;;;;;;;0.17;42.16;102273.14;109159;1276;23205;-60
2022/03/18 10:44:50;;;;;;;15.00;7.00;;;;;;;0.26;42.39;102270.50;109046;1276;137527;-60
2022/03/18 10:47:29;;;;;;;26.30;10.70;;;;;;;0.34;42.04;102278.21;109148;1276;22420;-60
2022/03/18 10:50:11;;;;;;;26.70;11.60;;;;;;;0.40;41.69;102277.78;109036;1276;138455;-60
2022/03/18 10:52:49;;;;;;;50.60;19.30;;;;;;;0.42;41.51;102277.25;109209;1275;23531;-60
2022/03/18 10:55:23;;;;;;;64.40;27.70;;;;;;;0.45;41.92;102276.11;109115;1276;22530;-60
2022/03/18 10:57:54;;;;;;;45.90;20.50;;;;;;;0.49;41.93;102272.86;109078;1277;139096;-60
2022/03/18 11:00:25;;;;;;;42.90;19.40;;;;;;;0.54;41.42;102273.20;109179;1276;22494;-60
2022/03/18 11:03:00;;;;;;;50.60;19.90;;;;;;;0.57;40.98;102268.80;109113;1276;137987;-60
2022/03/18 11:05:32;;;;;;;84.70;37.40;;;;;;;0.58;40.61;102273.52;109134;1276;22472;-60
2022/03/18 11:08:03;;;;;;;45.80;20.30;;;;;;;0.58;40.94;102271.05;109096;1276;138095;-60
2022/03/18 11:13:25;;;;;;;26.30;12.90;;;;;;;0.57;41.04;102264.73;109117;1277;23746;-60
2022/03/18 11:15:57;;;;;;;31.00;13.20;;;;;;;0.59;40.96;102269.54;109021;1277;139196;-60
2022/03/18 11:18:30;;;;;;;28.90;14.60;;;;;;;0.64;40.43;102266.83;109133;1276;22437;-59
2022/03/18 11:21:03;;;;;;;28.30;14.10;;;;;;;0.67;40.57;102260.63;109080;1276;137893;-60
2022/03/18 11:23:32;;;;;;;45.60;22.60;;;;;;;0.70;41.04;102260.37;109320;1274;22262;-59
2022/03/18 11:26:01;;;;;;;26.40;13.00;;;;;;;0.76;40.67;102263.52;109100;1274;137923;-59
2022/03/18 11:28:31;;;;;;;24.10;13.40;;;;;;;0.78;40.78;102255.75;109332;1274;22243;-60
2022/03/18 11:31:11;;;;;;;25.70;11.00;;;;;;;0.80;40.26;102247.75;108983;1276;22426;-60
2022/03/18 11:34:10;;;;;;;20.80;9.10;;;;;;;0.83;39.82;102247.49;109060;1277;138341;-59
2022/03/18 11:36:45;;;;;;;15.00;8.00;;;;;;;0.82;39.83;102243.98;109225;1275;22443;-59
2022/03/18 11:39:20;;;;;;;18.80;9.60;;;;;;;0.84;39.43;102242.95;109082;1277;138439;-59
2022/03/18 11:41:54;;;;;;;16.30;8.00;;;;;;;0.92;39.30;102250.84;109170;1277;23148;-59
2022/03/18 11:44:41;;;;;;;13.00;7.00;;;;;;;0.98;39.36;102249.61;108986;1276;138540;-59
2022/03/18 11:47:22;;;;;;;11.60;6.20;;;;;;;1.02;39.06;102246.93;109206;1276;22376;-59